createdAt,value
2022-11-27T00:03:53.276Z,1025.07
2022-11-27T00:08:52.538Z,1025.05
2022-11-27T00:13:50.795Z,1025.12
2022-11-27T00:18:48.983Z,1025.15
2022-11-27T00:23:49.229Z,1025.14
2022-11-27T00:28:48.478Z,1025.01
2022-11-27T00:33:47.665Z,1024.92
2022-11-27T00:38:46.963Z,1024.89
2022-11-27T00:43:47.141Z,1024.86
2022-11-27T00:48:45.297Z,1024.80
2022-11-27T00:53:44.457Z,1024.72
2022-11-27T00:58:43.679Z,1024.71
2022-11-27T01:03:42.880Z,1024.75
2022-11-27T01:08:42.053Z,1024.69
2022-11-27T01:13:41.207Z,1024.62
2022-11-27T01:18:40.375Z,1024.52
2022-11-27T01:23:39.567Z,1024.36
2022-11-27T01:28:38.722Z,1024.11
2022-11-27T01:33:37.879Z,1023.95
2022-11-27T01:38:37.039Z,1023.93
2022-11-27T01:43:36.194Z,1023.77
2022-11-27T01:48:35.391Z,1023.80
2022-11-27T01:53:34.562Z,1023.76
2022-11-27T01:58:34.727Z,1023.82
2022-11-27T02:03:33.908Z,1023.78
2022-11-27T02:08:33.073Z,1023.69
2022-11-27T02:13:31.255Z,1023.80
2022-11-27T02:18:32.450Z,1023.78
2022-11-27T02:23:29.611Z,1023.70
2022-11-27T02:28:29.800Z,1023.59
2022-11-27T02:33:28.988Z,1023.50
2022-11-27T02:38:27.134Z,1023.56
2022-11-27T02:43:26.307Z,1023.60
2022-11-27T02:48:25.567Z,1023.53
2022-11-27T02:53:24.752Z,1023.62
2022-11-27T02:58:25.932Z,1023.57
2022-11-27T03:03:23.093Z,1023.46
2022-11-27T03:08:26.254Z,1023.49
2022-11-27T03:13:21.609Z,1023.44
2022-11-27T03:18:21.784Z,1023.39
2022-11-27T03:23:20.943Z,1023.34
2022-11-27T03:28:21.158Z,1023.42
2022-11-27T03:33:18.365Z,1023.34
2022-11-27T03:38:17.537Z,1023.36
2022-11-27T03:43:16.800Z,1023.31
2022-11-27T03:48:18.033Z,1023.27
2022-11-27T03:53:15.204Z,1023.33
2022-11-27T03:58:14.388Z,1023.34
2022-11-27T04:03:14.579Z,1023.14
2022-11-27T04:08:13.764Z,1023.04
2022-11-27T04:13:13.954Z,1023.12
2022-11-27T04:18:11.113Z,1023.13
2022-11-27T04:23:10.431Z,1023.18
2022-11-27T04:28:09.720Z,1023.29
2022-11-27T04:33:09.014Z,1023.26
2022-11-27T04:38:08.325Z,1023.26
2022-11-27T04:43:08.641Z,1023.34
2022-11-27T04:48:06.925Z,1023.28
2022-11-27T04:53:06.203Z,1023.32
2022-11-27T04:58:09.529Z,1023.25
2022-11-27T05:03:04.891Z,1023.26
2022-11-27T05:08:04.033Z,1023.25
2022-11-27T05:13:05.321Z,1023.23
2022-11-27T05:18:02.630Z,1023.21
2022-11-27T05:23:01.930Z,1023.20
2022-11-27T05:28:01.250Z,1023.14
2022-11-27T05:33:00.381Z,1023.15
2022-11-27T05:37:59.709Z,1023.06
2022-11-27T05:42:59.063Z,1023.00
2022-11-27T05:48:00.364Z,1022.90
2022-11-27T05:52:58.643Z,1022.74
2022-11-27T05:57:56.962Z,1022.75
2022-11-27T06:02:56.422Z,1022.82
2022-11-27T06:07:56.460Z,1022.79
2022-11-27T06:12:56.753Z,1022.78
2022-11-27T06:17:55.042Z,1022.75
2022-11-27T06:22:54.324Z,1022.73
2022-11-27T06:27:52.619Z,1022.72
2022-11-27T06:32:51.916Z,1022.71
2022-11-27T06:37:51.218Z,1022.74
2022-11-27T06:42:50.552Z,1022.78
2022-11-27T06:47:50.704Z,1022.85
2022-11-27T06:52:48.792Z,1022.81
2022-11-27T06:57:50.129Z,1022.82
2022-11-27T07:02:48.436Z,1022.90
2022-11-27T07:07:46.849Z,1022.87
2022-11-27T07:12:45.897Z,1022.91
2022-11-27T07:17:46.224Z,1022.91
2022-11-27T07:22:45.496Z,1022.81
2022-11-27T07:27:43.870Z,1022.87
2022-11-27T07:32:42.990Z,1022.84
2022-11-27T07:37:43.351Z,1022.91
2022-11-27T07:42:42.528Z,1022.86
2022-11-27T07:47:40.830Z,1022.90
2022-11-27T07:52:42.327Z,1022.84
2022-11-27T07:57:39.327Z,1022.84
2022-11-27T08:02:38.635Z,1022.77
2022-11-27T08:07:38.046Z,1022.79
2022-11-27T08:12:39.205Z,1022.77
2022-11-27T08:17:38.518Z,1022.72
2022-11-27T08:22:36.820Z,1022.78
2022-11-27T08:27:35.100Z,1022.76
2022-11-27T08:32:35.412Z,1022.67
2022-11-27T08:37:33.733Z,1022.59
2022-11-27T08:42:32.869Z,1022.48
2022-11-27T08:47:32.037Z,1022.41
2022-11-27T08:52:32.384Z,1022.51
2022-11-27T08:57:31.514Z,1022.40
2022-11-27T09:02:30.051Z,1022.28
2022-11-27T09:07:30.011Z,1022.08
2022-11-27T09:12:28.287Z,1022.08
2022-11-27T09:17:28.658Z,1022.15
2022-11-27T09:22:29.767Z,1022.11
2022-11-27T09:27:25.947Z,1022.18
2022-11-27T09:32:27.207Z,1022.09
2022-11-27T09:37:24.425Z,1021.95
2022-11-27T09:42:23.620Z,1021.78
2022-11-27T09:47:24.809Z,1022.05
2022-11-27T09:52:22.974Z,1022.04
2022-11-27T09:57:21.205Z,1022.02
2022-11-27T10:02:21.447Z,1021.97
2022-11-27T10:07:20.665Z,1021.80
2022-11-27T10:12:20.866Z,1021.84
2022-11-27T10:17:18.062Z,1021.84
2022-11-27T10:22:21.116Z,1021.96
2022-11-27T10:27:17.391Z,1021.92
2022-11-27T10:32:46.828Z,1021.81
2022-11-27T10:37:14.832Z,1021.71
2022-11-27T10:42:14.013Z,1021.60
2022-11-27T10:47:14.212Z,1021.67
2022-11-27T10:52:12.354Z,1021.66
2022-11-27T10:57:12.554Z,1021.55
2022-11-27T11:02:11.767Z,1021.51
2022-11-27T11:07:11.019Z,1021.27
2022-11-27T11:12:09.216Z,1021.21
2022-11-27T11:17:08.448Z,1021.13
2022-11-27T11:22:11.752Z,1021.12
2022-11-27T11:27:06.840Z,1021.09
2022-11-27T11:32:06.224Z,1020.93
2022-11-27T11:37:06.295Z,1020.78
2022-11-27T11:42:05.470Z,1020.64
2022-11-27T11:47:03.736Z,1020.57
2022-11-27T11:52:04.917Z,1020.49
2022-11-27T11:57:02.075Z,1020.32
2022-11-27T12:02:02.281Z,1020.20
2022-11-27T12:07:00.462Z,1020.14
2022-11-27T12:11:59.636Z,1020.07
2022-11-27T12:16:58.850Z,1020.08
2022-11-27T12:21:59.060Z,1019.92
2022-11-27T12:26:57.251Z,1019.84
2022-11-27T12:31:57.450Z,1019.78
2022-11-27T12:36:56.629Z,1019.63
2022-11-27T12:41:54.896Z,1019.51
2022-11-27T12:46:55.067Z,1019.43
2022-11-27T12:51:53.239Z,1019.41
2022-11-27T12:56:53.399Z,1019.32
2022-11-27T13:01:54.699Z,1019.25
2022-11-27T13:06:50.969Z,1019.18
2022-11-27T13:11:51.145Z,1019.06
2022-11-27T13:16:50.367Z,1019.02
2022-11-27T13:21:48.581Z,1019.01
2022-11-27T13:26:47.755Z,1018.95
2022-11-27T13:31:47.305Z,1018.79
2022-11-27T13:36:47.175Z,1018.79
2022-11-27T13:41:46.325Z,1018.70
2022-11-27T13:46:44.484Z,1018.56
2022-11-27T13:51:48.937Z,1018.50
2022-11-27T13:56:43.868Z,1018.55
2022-11-27T14:01:43.152Z,1018.58
2022-11-27T14:06:41.411Z,1018.56
2022-11-27T14:11:41.829Z,1018.63
2022-11-27T14:16:40.087Z,1018.50
2022-11-27T14:21:39.123Z,1018.52
2022-11-27T14:26:38.311Z,1018.45
2022-11-27T14:31:38.579Z,1018.47
2022-11-27T14:36:37.789Z,1018.26
2022-11-27T14:41:36.975Z,1018.19
2022-11-27T14:46:35.477Z,1018.15
2022-11-27T14:51:34.339Z,1018.03
2022-11-27T14:56:33.601Z,1018.08
2022-11-27T15:01:37.168Z,1018.10
2022-11-27T15:06:32.974Z,1018.04
2022-11-27T15:11:54.582Z,1017.91
2022-11-27T15:16:31.694Z,1017.74
2022-11-27T15:21:30.769Z,1017.69
2022-11-27T15:26:28.971Z,1017.63
2022-11-27T15:31:28.258Z,1017.60
2022-11-27T15:36:28.456Z,1017.44
2022-11-27T15:41:26.767Z,1017.37
2022-11-27T15:46:25.999Z,1017.34
2022-11-27T15:51:26.445Z,1017.25
2022-11-27T15:56:24.737Z,1017.14
2022-11-27T16:01:24.832Z,1017.11
2022-11-27T16:06:23.376Z,1017.12
2022-11-27T16:11:22.452Z,1017.09
2022-11-27T16:16:21.701Z,1017.08
2022-11-27T16:21:27.954Z,1017.05
2022-11-27T16:26:20.304Z,1017.05
2022-11-27T16:31:19.593Z,1016.98
2022-11-27T16:36:20.147Z,1016.85
2022-11-27T16:41:19.323Z,1016.82
2022-11-27T16:46:17.591Z,1016.79
2022-11-27T16:51:17.397Z,1016.77
2022-11-27T16:56:15.843Z,1016.74
2022-11-27T17:01:14.963Z,1016.58
2022-11-27T17:06:15.585Z,1016.44
2022-11-27T17:11:13.427Z,1016.26
2022-11-27T17:16:14.043Z,1016.27
2022-11-27T17:21:12.260Z,1016.26
2022-11-27T17:26:11.399Z,1016.13
2022-11-27T17:31:11.530Z,1016.07
2022-11-27T17:36:14.011Z,1016.02
2022-11-27T17:41:10.316Z,1015.76
2022-11-27T17:46:09.342Z,1015.76
2022-11-27T17:51:07.706Z,1015.67
2022-11-27T17:56:07.185Z,1015.68
2022-11-27T18:01:07.562Z,1015.63
2022-11-27T18:06:06.739Z,1015.59
2022-11-27T18:11:04.765Z,1015.59
2022-11-27T18:16:05.267Z,1015.65
2022-11-27T18:21:04.387Z,1015.58
2022-11-27T18:26:02.438Z,1015.63
2022-11-27T18:31:02.938Z,1015.54
2022-11-27T18:36:00.754Z,1015.49
2022-11-27T18:41:00.337Z,1015.42
2022-11-27T18:45:59.608Z,1015.37
2022-11-27T18:51:00.795Z,1015.26
2022-11-27T18:55:57.933Z,1015.24
2022-11-27T19:00:59.195Z,1015.33
2022-11-27T19:06:01.483Z,1015.22
2022-11-27T19:10:56.617Z,1015.14
2022-11-27T19:15:54.771Z,1014.97
2022-11-27T19:20:55.737Z,1014.89
2022-11-27T19:25:53.188Z,1014.79
2022-11-27T19:30:52.048Z,1014.78
2022-11-27T19:35:51.585Z,1014.66
2022-11-27T19:40:50.800Z,1014.56
2022-11-27T19:45:50.161Z,1014.63
2022-11-27T19:50:49.253Z,1014.51
2022-11-27T19:55:48.494Z,1014.43
2022-11-27T20:00:47.851Z,1014.42
2022-11-27T20:05:46.950Z,1014.40
2022-11-27T20:10:47.059Z,1014.37
2022-11-27T20:15:47.279Z,1014.24
2022-11-27T20:20:44.175Z,1014.19
2022-11-27T20:25:43.725Z,1014.11
2022-11-27T20:30:43.652Z,1014.07
2022-11-27T20:35:42.853Z,1014.10
2022-11-27T20:40:41.459Z,1014.02
2022-11-27T20:45:40.682Z,1013.98
2022-11-27T20:50:41.505Z,1014.02
2022-11-27T20:55:39.134Z,1013.88
2022-11-27T21:00:39.239Z,1013.82
2022-11-27T21:05:37.578Z,1013.75
2022-11-27T21:10:36.459Z,1013.69
2022-11-27T21:15:35.989Z,1013.74
2022-11-27T21:20:36.145Z,1013.68
2022-11-27T21:25:34.330Z,1013.57
2022-11-27T21:30:33.184Z,1013.53
2022-11-27T21:35:35.668Z,1013.47
2022-11-27T21:40:31.813Z,1013.41
2022-11-27T21:45:31.903Z,1013.28
2022-11-27T21:50:31.089Z,1013.31
2022-11-27T21:55:29.291Z,1013.21
2022-11-27T22:00:28.465Z,1013.15
2022-11-27T22:05:27.647Z,1013.18
2022-11-27T22:10:26.844Z,1013.13
2022-11-27T22:15:25.026Z,1013.09
2022-11-27T22:20:25.190Z,1013.00
2022-11-27T22:25:25.375Z,1012.87
2022-11-27T22:30:24.559Z,1012.86
2022-11-27T22:35:23.702Z,1012.90
2022-11-27T22:40:21.874Z,1012.95
2022-11-27T22:45:22.046Z,1012.97
2022-11-27T22:50:20.243Z,1012.97
2022-11-27T22:55:20.451Z,1013.00
2022-11-27T23:00:18.650Z,1013.05
2022-11-27T23:05:17.860Z,1013.08
2022-11-27T23:10:17.088Z,1013.07
2022-11-27T23:15:16.278Z,1012.98
2022-11-27T23:20:15.515Z,1012.86
2022-11-27T23:25:14.711Z,1012.94
2022-11-27T23:30:13.919Z,1012.95
2022-11-27T23:35:13.124Z,1012.94
2022-11-27T23:40:12.324Z,1012.79
2022-11-27T23:45:11.539Z,1012.58
2022-11-27T23:50:12.759Z,1012.56
2022-11-27T23:55:09.957Z,1012.42
